createdAt,value
2017-10-28T00:00:29.468Z,17.51
2017-10-28T00:01:42.229Z,17.64
2017-10-28T00:02:55.494Z,17.49
2017-10-28T00:04:08.233Z,17.44
2017-10-28T00:05:21.545Z,17.48
2017-10-28T00:06:34.319Z,17.46
2017-10-28T00:07:47.587Z,17.37
2017-10-28T00:09:00.834Z,17.41
2017-10-28T00:10:14.112Z,17.46
2017-10-28T00:11:27.335Z,17.48
2017-10-28T00:12:40.094Z,17.48
2017-10-28T00:13:52.321Z,17.55
2017-10-28T00:15:04.551Z,17.64
2017-10-28T00:16:17.832Z,17.68
2017-10-28T00:17:31.138Z,17.75
2017-10-28T00:18:43.329Z,17.84
2017-10-28T00:19:55.536Z,17.87
2017-10-28T00:21:08.245Z,17.97
2017-10-28T00:22:20.980Z,17.96
2017-10-28T00:23:34.245Z,18.02
2017-10-28T00:24:47.016Z,18.18
2017-10-28T00:25:59.971Z,18.35
2017-10-28T00:27:13.258Z,18.3
2017-10-28T00:28:26.019Z,18.25
2017-10-28T00:29:37.171Z,18.33
2017-10-28T00:30:49.371Z,18.35
2017-10-28T00:32:02.113Z,18.44
2017-10-28T00:33:15.359Z,18.35
2017-10-28T00:34:28.645Z,18.36
2017-10-28T00:35:41.948Z,18.44
2017-10-28T00:36:54.727Z,18.42
2017-10-28T00:38:08.001Z,18.5
2017-10-28T00:39:21.281Z,18.52
2017-10-28T00:40:34.745Z,18.42
2017-10-28T00:41:47.476Z,18.37
2017-10-28T00:43:00.240Z,18.36
2017-10-28T00:44:12.962Z,18.36
2017-10-28T00:45:25.919Z,18.37
2017-10-28T00:46:39.154Z,18.36
2017-10-28T00:47:52.452Z,18.36
2017-10-28T00:49:05.210Z,18.37
2017-10-28T00:50:18.213Z,18.35
2017-10-28T00:51:31.133Z,18.33
2017-10-28T00:52:44.405Z,18.47
2017-10-28T00:53:57.660Z,18.29
2017-10-28T00:55:10.960Z,18.42
2017-10-28T00:56:23.713Z,18.33
2017-10-28T00:57:37.006Z,18.39
2017-10-28T00:58:49.209Z,18.37
2017-10-28T01:00:01.406Z,18.33
2017-10-28T01:01:14.127Z,18.27
2017-10-28T01:02:26.361Z,18.32
2017-10-28T01:03:39.092Z,18.26
2017-10-28T01:04:52.407Z,18.21
2017-10-28T01:06:05.675Z,18.21
2017-10-28T01:07:17.384Z,18.29
2017-10-28T01:08:30.648Z,18.26
2017-10-28T01:09:42.876Z,18.17
2017-10-28T01:10:55.628Z,18.25
2017-10-28T01:12:08.903Z,18.08
2017-10-28T01:13:22.132Z,18.17
2017-10-28T01:14:33.758Z,18.14
2017-10-28T01:15:46.498Z,18.12
2017-10-28T01:16:59.750Z,18.12
2017-10-28T01:18:12.530Z,18.17
2017-10-28T01:19:25.252Z,18.15
2017-10-28T01:20:37.981Z,18.18
2017-10-28T01:21:51.274Z,18.21
2017-10-28T01:23:02.959Z,18.17
2017-10-28T01:24:16.214Z,18.07
2017-10-28T01:25:29.480Z,18.14
2017-10-28T01:26:42.752Z,18
2017-10-28T01:27:55.743Z,18.14
2017-10-28T01:29:08.514Z,18.1
2017-10-28T01:30:20.724Z,18.08
2017-10-28T01:31:32.927Z,18.11
2017-10-28T01:32:45.650Z,18.1
2017-10-28T01:33:57.930Z,18.08
2017-10-28T01:35:11.245Z,18.05
2017-10-28T01:36:24.516Z,18.08
2017-10-28T01:37:37.268Z,18.03
2017-10-28T01:38:50.017Z,18.08
2017-10-28T01:40:03.568Z,18.11
2017-10-28T01:41:16.340Z,18.15
2017-10-28T01:42:29.059Z,18.23
2017-10-28T01:43:42.335Z,18.12
2017-10-28T01:44:54.526Z,18.11
2017-10-28T01:46:07.841Z,18.11
2017-10-28T01:47:21.118Z,18.07
2017-10-28T01:48:33.856Z,18.18
2017-10-28T01:49:47.169Z,18.23
2017-10-28T01:51:00.430Z,18.15
2017-10-28T01:52:13.180Z,18.11
2017-10-28T01:53:25.896Z,18.12
2017-10-28T01:54:38.627Z,18.07
2017-10-28T01:55:51.888Z,18.14
2017-10-28T01:57:04.072Z,18
2017-10-28T01:58:16.825Z,18
2017-10-28T01:59:30.076Z,18.03
2017-10-28T02:00:42.796Z,17.96
2017-10-28T02:01:56.057Z,17.93
2017-10-28T02:03:09.322Z,17.95
2017-10-28T02:04:22.648Z,17.86
2017-10-28T02:05:34.856Z,17.93
2017-10-28T02:06:48.137Z,17.92
2017-10-28T02:08:00.858Z,17.86
2017-10-28T02:09:13.596Z,17.95
2017-10-28T02:10:26.341Z,17.96
2017-10-28T02:11:39.071Z,17.92
2017-10-28T02:12:51.295Z,18.07
2017-10-28T02:14:03.519Z,18.07
2017-10-28T02:15:16.291Z,18.1
2017-10-28T02:16:29.051Z,18.11
2017-10-28T02:17:41.757Z,17.97
2017-10-28T02:18:55.048Z,18.07
2017-10-28T02:20:07.228Z,18
2017-10-28T02:21:20.488Z,18.08
2017-10-28T02:22:33.233Z,18.03
2017-10-28T02:23:46.495Z,18.02
2017-10-28T02:24:59.247Z,18.02
2017-10-28T02:26:12.733Z,18
2017-10-28T02:27:26.045Z,18.08
2017-10-28T02:28:38.744Z,18.14
2017-10-28T02:29:51.469Z,18.08
2017-10-28T02:31:04.716Z,18.05
2017-10-28T02:32:18.003Z,18.02
2017-10-28T02:33:31.216Z,18
2017-10-28T02:34:44.462Z,18.11
2017-10-28T02:35:57.709Z,18.07
2017-10-28T02:37:09.378Z,18.05
2017-10-28T02:38:22.674Z,18.18
2017-10-28T02:39:34.885Z,18.14
2017-10-28T02:40:48.121Z,18.23
2017-10-28T02:42:01.385Z,18.2
2017-10-28T02:43:14.142Z,18.17
2017-10-28T02:44:27.410Z,18.21
2017-10-28T02:45:40.705Z,18.14
2017-10-28T02:46:54.176Z,18.21
2017-10-28T02:48:06.359Z,18.2
2017-10-28T02:49:19.120Z,18.25
2017-10-28T02:50:32.395Z,18.23
2017-10-28T02:51:45.122Z,18.18
2017-10-28T02:52:57.850Z,18.18
2017-10-28T02:54:10.725Z,18.1
2017-10-28T02:55:22.940Z,18.17
2017-10-28T02:56:35.713Z,18.14
2017-10-28T02:57:48.476Z,18.15
2017-10-28T02:58:59.590Z,18.2
2017-10-28T03:00:12.881Z,18.08
2017-10-28T03:01:25.653Z,18.15
2017-10-28T03:02:38.929Z,18.11
2017-10-28T03:03:52.198Z,18.25
2017-10-28T03:05:05.493Z,18.26
2017-10-28T03:06:18.752Z,18.26
2017-10-28T03:07:31.993Z,18.21
2017-10-28T03:08:44.754Z,18.29
2017-10-28T03:09:57.466Z,18.3
2017-10-28T03:11:09.685Z,18.36
2017-10-28T03:12:22.462Z,18.41
2017-10-28T03:13:35.247Z,18.42
2017-10-28T03:14:47.456Z,18.37
2017-10-28T03:15:59.075Z,18.29
2017-10-28T03:17:11.782Z,18.33
2017-10-28T03:18:23.985Z,18.39
2017-10-28T03:19:36.691Z,18.47
2017-10-28T03:20:49.437Z,18.36
2017-10-28T03:22:02.147Z,18.33
2017-10-28T03:23:14.863Z,18.45
2017-10-28T03:24:28.126Z,18.48
2017-10-28T03:25:40.877Z,18.52
2017-10-28T03:26:54.144Z,18.48
2017-10-28T03:28:07.425Z,18.42
2017-10-28T03:29:20.673Z,18.44
2017-10-28T03:30:34.144Z,18.58
2017-10-28T03:31:47.405Z,18.6
2017-10-28T03:33:00.154Z,18.65
2017-10-28T03:34:12.940Z,18.62
2017-10-28T03:35:25.677Z,18.62
2017-10-28T03:36:38.975Z,18.54
2017-10-28T03:37:52.269Z,18.6
2017-10-28T03:39:05.525Z,18.65
2017-10-28T03:40:18.817Z,18.65
2017-10-28T03:41:32.098Z,18.6
2017-10-28T03:42:45.353Z,18.6
2017-10-28T03:43:58.647Z,18.66
2017-10-28T03:45:11.880Z,18.63
2017-10-28T03:46:24.085Z,18.58
2017-10-28T03:47:37.380Z,18.73
2017-10-28T03:48:50.633Z,18.67
2017-10-28T03:50:03.397Z,18.76
2017-10-28T03:51:16.149Z,18.66
2017-10-28T03:52:29.465Z,18.69
2017-10-28T03:53:42.219Z,18.67
2017-10-28T03:54:55.506Z,18.8
2017-10-28T03:56:08.255Z,18.75
2017-10-28T03:57:21.489Z,18.76
2017-10-28T03:58:34.213Z,18.72
2017-10-28T03:59:47.436Z,18.63
2017-10-28T04:01:00.681Z,18.7
2017-10-28T04:02:13.438Z,18.67
2017-10-28T04:03:26.741Z,18.69
2017-10-28T04:04:39.512Z,18.76
2017-10-28T04:05:52.274Z,18.7
2017-10-28T04:07:05.014Z,18.6
2017-10-28T04:08:18.333Z,18.76
2017-10-28T04:09:31.620Z,18.69
2017-10-28T04:10:44.877Z,18.54
2017-10-28T04:11:57.633Z,18.62
2017-10-28T04:13:10.946Z,18.63
2017-10-28T04:14:24.274Z,18.62
2017-10-28T04:15:37.051Z,18.63
2017-10-28T04:16:50.314Z,18.75
2017-10-28T04:18:03.284Z,18.76
2017-10-28T04:19:16.527Z,18.72
2017-10-28T04:20:29.786Z,18.82
2017-10-28T04:21:42.022Z,18.9
2017-10-28T04:22:55.344Z,18.91
2017-10-28T04:24:08.072Z,18.81
2017-10-28T04:25:21.393Z,18.88
2017-10-28T04:26:34.671Z,18.82
2017-10-28T04:27:47.948Z,18.95
2017-10-28T04:29:01.208Z,19
2017-10-28T04:30:13.973Z,19.06
2017-10-28T04:31:26.730Z,19.06
2017-10-28T04:32:40.012Z,19.18
2017-10-28T04:33:52.762Z,19.02
2017-10-28T04:35:05.512Z,19.08
2017-10-28T04:36:18.806Z,19.21
2017-10-28T04:37:32.068Z,19.16
2017-10-28T04:38:45.325Z,19.21
2017-10-28T04:39:58.637Z,19.06
2017-10-28T04:41:11.381Z,19.02
2017-10-28T04:42:24.676Z,19.07
2017-10-28T04:43:37.412Z,19.1
2017-10-28T04:44:50.140Z,19
2017-10-28T04:46:03.401Z,19.1
2017-10-28T04:47:15.097Z,19.11
2017-10-28T04:48:27.830Z,19.08
2017-10-28T04:49:40.569Z,18.9
2017-10-28T04:50:52.768Z,19.02
2017-10-28T04:52:06.064Z,18.99
2017-10-28T04:53:19.344Z,18.9
2017-10-28T04:54:32.105Z,18.91
2017-10-28T04:55:45.352Z,18.87
2017-10-28T04:56:58.079Z,18.82
2017-10-28T04:58:10.825Z,18.87
2017-10-28T04:59:24.085Z,18.76
2017-10-28T05:00:36.863Z,18.81
2017-10-28T05:01:50.118Z,18.9
2017-10-28T05:03:02.880Z,18.87
2017-10-28T05:04:15.629Z,18.85
2017-10-28T05:05:27.823Z,18.76
2017-10-28T05:06:41.064Z,18.87
2017-10-28T05:07:53.811Z,18.82
2017-10-28T05:09:06.519Z,18.82
2017-10-28T05:10:19.257Z,18.85
2017-10-28T05:11:32.718Z,18.85
2017-10-28T05:12:45.437Z,18.9
2017-10-28T05:13:58.155Z,18.78
2017-10-28T05:15:10.856Z,18.85
2017-10-28T05:16:23.628Z,18.91
2017-10-28T05:17:36.928Z,18.88
2017-10-28T05:18:48.606Z,18.9
2017-10-28T05:20:01.877Z,18.88
2017-10-28T05:21:15.165Z,18.84
2017-10-28T05:22:27.896Z,18.85
2017-10-28T05:23:41.172Z,18.9
2017-10-28T05:24:54.399Z,18.85
2017-10-28T05:26:07.149Z,18.85
2017-10-28T05:27:19.900Z,18.88
2017-10-28T05:28:32.109Z,18.95
2017-10-28T05:29:44.844Z,18.92
2017-10-28T05:30:58.138Z,18.95
2017-10-28T05:32:10.370Z,18.91
2017-10-28T05:33:23.164Z,18.85
2017-10-28T05:34:35.392Z,18.84
2017-10-28T05:35:48.716Z,18.8
2017-10-28T05:37:01.988Z,18.78
2017-10-28T05:38:13.676Z,18.85
2017-10-28T05:39:25.916Z,18.76
2017-10-28T05:40:38.637Z,18.85
2017-10-28T05:41:51.928Z,18.82
2017-10-28T05:43:05.225Z,18.9
2017-10-28T05:44:17.928Z,18.8
2017-10-28T05:45:30.891Z,18.85
2017-10-28T05:46:44.142Z,18.8
2017-10-28T05:47:55.818Z,18.7
2017-10-28T05:49:09.102Z,18.73
2017-10-28T05:50:21.840Z,18.69
2017-10-28T05:51:35.142Z,18.62
2017-10-28T05:52:48.421Z,18.6
2017-10-28T05:54:01.691Z,18.62
2017-10-28T05:55:14.649Z,18.57
2017-10-28T05:56:27.925Z,18.66
2017-10-28T05:57:41.218Z,18.55
2017-10-28T05:58:53.448Z,18.57
2017-10-28T06:00:05.704Z,18.57
2017-10-28T06:01:18.437Z,18.57
2017-10-28T06:02:31.714Z,18.54
2017-10-28T06:03:44.460Z,18.47
2017-10-28T06:04:57.159Z,18.45
2017-10-28T06:06:10.477Z,18.52
2017-10-28T06:07:23.238Z,18.57
2017-10-28T06:08:35.463Z,18.54
2017-10-28T06:09:48.710Z,18.48
2017-10-28T06:11:01.460Z,18.51
2017-10-28T06:12:13.656Z,18.51
2017-10-28T06:13:26.427Z,18.5
2017-10-28T06:14:39.728Z,18.48
2017-10-28T06:15:51.905Z,18.62
2017-10-28T06:17:05.178Z,18.62
2017-10-28T06:18:18.502Z,18.6
2017-10-28T06:19:30.699Z,18.5
2017-10-28T06:20:43.960Z,18.45
2017-10-28T06:21:56.698Z,18.54
2017-10-28T06:23:10.025Z,18.55
2017-10-28T06:24:23.335Z,18.51
2017-10-28T06:25:36.082Z,18.57
2017-10-28T06:26:48.815Z,18.51
2017-10-28T06:28:01.561Z,18.48
2017-10-28T06:29:14.290Z,18.51
2017-10-28T06:30:27.051Z,18.5
2017-10-28T06:31:39.815Z,18.42
2017-10-28T06:32:53.075Z,18.45
2017-10-28T06:34:05.268Z,18.44
2017-10-28T06:35:17.517Z,18.45
2017-10-28T06:36:30.218Z,18.55
2017-10-28T06:37:42.459Z,18.45
2017-10-28T06:38:55.723Z,18.52
2017-10-28T06:40:08.983Z,18.55
2017-10-28T06:41:21.709Z,18.45
2017-10-28T06:42:33.905Z,18.55
2017-10-28T06:43:46.668Z,18.48
2017-10-28T06:45:00.121Z,18.44
2017-10-28T06:46:13.398Z,18.51
2017-10-28T06:47:26.690Z,18.45
2017-10-28T06:48:39.940Z,18.42
2017-10-28T06:49:52.670Z,18.45
2017-10-28T06:51:05.624Z,18.55
2017-10-28T06:52:18.860Z,18.47
2017-10-28T06:53:32.137Z,18.41
2017-10-28T06:54:44.860Z,18.39
2017-10-28T06:55:57.636Z,18.39
2017-10-28T06:57:10.117Z,18.42
2017-10-28T06:58:23.468Z,18.45
2017-10-28T06:59:36.758Z,18.35
2017-10-28T07:00:48.986Z,18.33
2017-10-28T07:02:01.736Z,18.37
2017-10-28T07:03:15.199Z,18.42
2017-10-28T07:04:28.487Z,18.37
2017-10-28T07:05:41.843Z,18.47
2017-10-28T07:06:54.583Z,18.41
2017-10-28T07:08:07.356Z,18.45
2017-10-28T07:09:20.633Z,18.48
2017-10-28T07:10:33.351Z,18.54
2017-10-28T07:11:45.056Z,18.44
2017-10-28T07:12:58.356Z,18.45
2017-10-28T07:14:11.123Z,18.52
2017-10-28T07:15:24.399Z,18.45
2017-10-28T07:16:37.703Z,18.39
2017-10-28T07:17:51.042Z,18.47
2017-10-28T07:19:04.530Z,18.5
2017-10-28T07:20:17.308Z,18.44
2017-10-28T07:21:30.607Z,18.35
2017-10-28T07:22:43.381Z,18.37
2017-10-28T07:23:56.124Z,18.58
2017-10-28T07:25:08.920Z,18.55
2017-10-28T07:26:22.235Z,18.48
2017-10-28T07:27:35.532Z,18.48
2017-10-28T07:28:48.514Z,18.44
2017-10-28T07:30:01.815Z,18.51
2017-10-28T07:31:14.578Z,18.5
2017-10-28T07:32:27.880Z,18.44
2017-10-28T07:33:40.656Z,18.52
2017-10-28T07:34:53.934Z,18.47
2017-10-28T07:36:07.231Z,18.48
2017-10-28T07:37:19.480Z,18.55
2017-10-28T07:38:32.238Z,18.51
2017-10-28T07:39:44.977Z,18.58
2017-10-28T07:40:57.748Z,18.48
2017-10-28T07:42:10.026Z,18.51
2017-10-28T07:43:23.362Z,18.52
2017-10-28T07:44:36.699Z,18.55
2017-10-28T07:45:48.902Z,18.5
2017-10-28T07:47:01.630Z,18.6
2017-10-28T07:48:14.368Z,18.69
2017-10-28T07:49:27.638Z,18.72
2017-10-28T07:50:40.982Z,18.63
2017-10-28T07:51:54.286Z,18.66
2017-10-28T07:53:07.553Z,18.73
2017-10-28T07:54:20.310Z,18.67
2017-10-28T07:55:32.531Z,18.69
2017-10-28T07:56:45.813Z,18.73
2017-10-28T07:57:59.082Z,18.76
2017-10-28T07:59:11.342Z,18.76
2017-10-28T08:00:24.671Z,18.6
2017-10-28T08:01:38.168Z,18.67
2017-10-28T08:02:50.912Z,18.6
2017-10-28T08:04:03.130Z,18.7
2017-10-28T08:05:15.385Z,18.76
2017-10-28T08:06:28.712Z,18.69
2017-10-28T08:07:42.024Z,18.7
2017-10-28T08:08:54.793Z,18.67
2017-10-28T08:10:08.096Z,18.75
2017-10-28T08:11:21.406Z,18.66
2017-10-28T08:12:34.703Z,18.69
2017-10-28T08:13:47.448Z,18.72
2017-10-28T08:14:59.665Z,18.75
2017-10-28T08:16:12.406Z,18.7
2017-10-28T08:17:25.149Z,18.67
2017-10-28T08:18:38.447Z,18.72
2017-10-28T08:19:51.706Z,18.78
2017-10-28T08:21:05.012Z,18.7
2017-10-28T08:22:17.805Z,18.63
2017-10-28T08:23:31.154Z,18.69
2017-10-28T08:24:44.421Z,18.69
2017-10-28T08:25:57.190Z,18.55
2017-10-28T08:27:10.498Z,18.7
2017-10-28T08:28:23.790Z,18.58
2017-10-28T08:29:37.080Z,18.58
2017-10-28T08:30:49.320Z,18.62
2017-10-28T08:32:02.620Z,18.66
2017-10-28T08:33:15.900Z,18.54
2017-10-28T08:34:29.197Z,18.63
2017-10-28T08:35:42.538Z,18.69
2017-10-28T08:36:55.818Z,18.76
2017-10-28T08:38:09.089Z,18.72
2017-10-28T08:39:22.378Z,18.7
2017-10-28T08:40:35.696Z,18.62
2017-10-28T08:41:47.950Z,18.75
2017-10-28T08:43:01.258Z,18.76
2017-10-28T08:44:14.007Z,18.76
2017-10-28T08:45:27.306Z,18.87
2017-10-28T08:46:40.085Z,18.94
2017-10-28T08:47:52.843Z,19.02
2017-10-28T08:49:06.124Z,19.16
2017-10-28T08:50:18.893Z,19.16
2017-10-28T08:51:31.640Z,19.46
2017-10-28T08:52:44.392Z,19.43
2017-10-28T08:53:57.119Z,19.43
2017-10-28T08:55:10.446Z,19.43
2017-10-28T08:56:23.209Z,19.47
2017-10-28T08:57:35.483Z,19.48
2017-10-28T08:58:48.789Z,19.29
2017-10-28T09:00:02.103Z,19.18
2017-10-28T09:01:15.400Z,19.22
2017-10-28T09:02:27.641Z,19.14
2017-10-28T09:03:40.408Z,19.16
2017-10-28T09:04:53.727Z,19.22
2017-10-28T09:06:07.015Z,19.22
2017-10-28T09:07:19.779Z,19.25
2017-10-28T09:08:33.062Z,19.37
2017-10-28T09:09:44.225Z,19.37
2017-10-28T09:10:57.502Z,19.5
2017-10-28T09:12:09.220Z,19.47
2017-10-28T09:13:22.205Z,19.54
2017-10-28T09:14:34.935Z,19.62
2017-10-28T09:15:48.208Z,19.68
2017-10-28T09:17:01.038Z,19.77
2017-10-28T09:18:13.829Z,19.81
2017-10-28T09:19:27.142Z,19.69
2017-10-28T09:20:40.427Z,19.81
2017-10-28T09:21:53.275Z,19.74
2017-10-28T09:23:06.617Z,19.69
2017-10-28T09:24:19.907Z,19.76
2017-10-28T09:25:32.674Z,19.88
2017-10-28T09:26:45.980Z,20.01
2017-10-28T09:27:58.178Z,20.14
2017-10-28T09:29:11.490Z,20.1
2017-10-28T09:30:24.809Z,20.26
2017-10-28T09:31:38.070Z,20.32
2017-10-28T09:32:50.291Z,20.32
2017-10-28T09:34:03.256Z,20.31
2017-10-28T09:35:15.966Z,20.38
2017-10-28T09:36:28.715Z,20.28
2017-10-28T09:37:40.973Z,20.29
2017-10-28T09:38:54.288Z,20.39
2017-10-28T09:40:07.584Z,20.5
2017-10-28T09:41:20.865Z,20.36
2017-10-28T09:42:34.158Z,20.29
2017-10-28T09:43:46.935Z,20.42
2017-10-28T09:44:59.151Z,20.48
2017-10-28T09:46:12.498Z,20.7
2017-10-28T09:47:25.833Z,20.47
2017-10-28T09:48:38.054Z,20.55
2017-10-28T09:49:51.307Z,20.59
2017-10-28T09:51:04.615Z,20.76
2017-10-28T09:52:17.386Z,20.88
2017-10-28T09:53:30.358Z,20.82
2017-10-28T09:54:43.658Z,20.76
2017-10-28T09:55:56.452Z,20.73
2017-10-28T09:57:08.691Z,20.74
2017-10-28T09:58:21.463Z,20.61
2017-10-28T09:59:34.753Z,20.64
2017-10-28T10:00:48.036Z,20.55
2017-10-28T10:02:00.752Z,20.51
2017-10-28T10:03:14.084Z,20.64
2017-10-28T10:04:27.633Z,20.61
2017-10-28T10:05:40.961Z,20.84
2017-10-28T10:06:54.628Z,20.76
2017-10-28T10:08:07.710Z,20.89
2017-10-28T10:09:19.950Z,20.99
2017-10-28T10:10:33.258Z,21.1
2017-10-28T10:11:46.245Z,21.13
2017-10-28T10:12:59.252Z,21.03
2017-10-28T10:14:12.946Z,21.06
2017-10-28T10:15:26.304Z,21.04
2017-10-28T10:16:39.052Z,20.76
2017-10-28T10:17:51.812Z,20.76
2017-10-28T10:19:04.606Z,20.79
2017-10-28T10:20:17.426Z,20.84
2017-10-28T10:21:30.196Z,21.01
2017-10-28T10:22:41.374Z,21.09
2017-10-28T10:23:54.648Z,21.12
2017-10-28T10:25:07.433Z,21.14
2017-10-28T10:26:21.022Z,21.24
2017-10-28T10:27:34.414Z,21.12
2017-10-28T10:28:47.673Z,21.16
2017-10-28T10:30:01.010Z,21.12
2017-10-28T10:31:12.165Z,21.12
2017-10-28T10:32:25.486Z,21.12
2017-10-28T10:33:38.793Z,21.12
2017-10-28T10:34:52.076Z,21.34
2017-10-28T10:36:04.858Z,21.29
2017-10-28T10:37:17.627Z,21.21
2017-10-28T10:38:30.916Z,21.25
2017-10-28T10:39:44.239Z,21.24
2017-10-28T10:40:57.551Z,21.22
2017-10-28T10:42:09.784Z,21.43
2017-10-28T10:43:22.536Z,21.52
2017-10-28T10:44:35.322Z,21.47
2017-10-28T10:45:48.042Z,21.47
2017-10-28T10:47:00.280Z,21.46
2017-10-28T10:48:11.969Z,21.59
2017-10-28T10:49:24.750Z,21.59
2017-10-28T10:50:38.017Z,21.56
2017-10-28T10:51:51.321Z,21.71
2017-10-28T10:53:04.072Z,21.82
2017-10-28T10:54:16.880Z,21.82
2017-10-28T10:55:29.801Z,21.86
2017-10-28T10:56:42.926Z,21.88
2017-10-28T10:57:55.682Z,21.64
2017-10-28T10:59:08.477Z,21.79
2017-10-28T11:00:21.771Z,21.54
2017-10-28T11:01:34.536Z,21.62
2017-10-28T11:02:47.291Z,21.56
2017-10-28T11:04:00.051Z,21.53
2017-10-28T11:05:13.537Z,21.61
2017-10-28T11:06:26.893Z,21.71
2017-10-28T11:07:39.666Z,21.86
2017-10-28T11:08:52.456Z,21.82
2017-10-28T11:10:05.796Z,21.83
2017-10-28T11:11:19.093Z,21.75
2017-10-28T11:12:32.421Z,21.77
2017-10-28T11:13:45.687Z,21.88
2017-10-28T11:14:58.448Z,21.8
2017-10-28T11:16:11.736Z,22.25
2017-10-28T11:17:24.000Z,22.39
2017-10-28T11:18:37.330Z,22.39
2017-10-28T11:19:49.599Z,22.73
2017-10-28T11:21:02.351Z,22.47
2017-10-28T11:22:15.646Z,22.42
2017-10-28T11:23:28.954Z,22.33
2017-10-28T11:24:41.800Z,22.55
2017-10-28T11:25:55.123Z,22.55
2017-10-28T11:27:07.910Z,22.72
2017-10-28T11:28:21.295Z,22.68
2017-10-28T11:29:34.588Z,22.68
2017-10-28T11:30:47.905Z,22.73
2017-10-28T11:32:00.676Z,22.58
2017-10-28T11:33:12.929Z,22.57
2017-10-28T11:34:25.714Z,22.52
2017-10-28T11:35:38.173Z,22.42
2017-10-28T11:36:50.999Z,22.55
2017-10-28T11:38:04.306Z,22.55
2017-10-28T11:39:17.091Z,22.55
2017-10-28T11:40:30.442Z,22.51
2017-10-28T11:41:43.715Z,22.39
2017-10-28T11:42:57.022Z,22.45
2017-10-28T11:44:10.369Z,22.54
2017-10-28T11:45:23.155Z,22.6
2017-10-28T11:46:36.454Z,22.73
2017-10-28T11:47:49.712Z,22.68
2017-10-28T11:49:03.003Z,22.57
2017-10-28T11:50:16.311Z,22.77
2017-10-28T11:51:28.567Z,22.91
2017-10-28T11:52:40.951Z,22.98
2017-10-28T11:53:53.748Z,22.8
2017-10-28T11:55:05.462Z,22.64
2017-10-28T11:56:18.828Z,22.58
2017-10-28T11:57:31.545Z,22.45
2017-10-28T11:58:44.305Z,22.58
2017-10-28T11:59:57.600Z,22.73
2017-10-28T12:01:10.386Z,22.83
2017-10-28T12:02:22.629Z,22.88
2017-10-28T12:03:35.943Z,23.07
2017-10-28T12:04:48.740Z,22.98
2017-10-28T12:06:01.704Z,22.86
2017-10-28T12:07:14.465Z,22.75
2017-10-28T12:08:27.218Z,23.02
2017-10-28T12:09:39.966Z,23.46
2017-10-28T12:10:53.314Z,23.47
2017-10-28T12:12:06.845Z,23.32
2017-10-28T12:13:19.630Z,23.19
2017-10-28T12:14:32.405Z,23.22
2017-10-28T12:15:45.685Z,23.25
2017-10-28T12:16:58.463Z,23.28
2017-10-28T12:18:11.790Z,23.2
2017-10-28T12:19:25.085Z,23.23
2017-10-28T12:20:38.369Z,23.32
2017-10-28T12:21:51.667Z,23.46
2017-10-28T12:23:04.535Z,23.39
2017-10-28T12:24:17.395Z,23.38
2017-10-28T12:25:30.403Z,23.54
2017-10-28T12:26:43.774Z,23.87
2017-10-28T12:27:56.626Z,24.18
2017-10-28T12:29:08.845Z,24.34
2017-10-28T12:30:21.623Z,24.13
2017-10-28T12:31:34.970Z,23.97
2017-10-28T12:32:48.262Z,24.06
2017-10-28T12:34:00.715Z,24.05
2017-10-28T12:35:12.921Z,24.18
2017-10-28T12:36:26.230Z,24.32
2017-10-28T12:37:38.995Z,24.37
2017-10-28T12:38:51.790Z,24.55
2017-10-28T12:40:05.097Z,24.39
2017-10-28T12:41:17.930Z,24.22
2017-10-28T12:42:30.925Z,24.2
2017-10-28T12:43:44.229Z,24.22
2017-10-28T12:44:55.924Z,24.57
2017-10-28T12:46:09.248Z,24.9
2017-10-28T12:47:22.605Z,24.8
2017-10-28T12:48:35.867Z,24.61
2017-10-28T12:49:48.628Z,24.21
2017-10-28T12:51:02.227Z,24.21
2017-10-28T12:52:15.009Z,24.4
2017-10-28T12:53:27.237Z,24.4
2017-10-28T12:54:40.746Z,24.46
2017-10-28T12:55:53.506Z,24.58
2017-10-28T12:57:06.275Z,24.34
2017-10-28T12:58:19.738Z,24.24
2017-10-28T12:59:31.441Z,24.35
2017-10-28T13:00:43.754Z,24.47
2017-10-28T13:01:56.498Z,24.43
2017-10-28T13:03:09.859Z,24.18
2017-10-28T13:04:23.162Z,24.1
2017-10-28T13:05:35.919Z,24.05
2017-10-28T13:06:48.676Z,24.46
2017-10-28T13:08:00.344Z,24.57
2017-10-28T13:09:13.152Z,24.95
2017-10-28T13:10:26.484Z,24.71
2017-10-28T13:11:39.295Z,24.83
2017-10-28T13:12:50.977Z,24.67
2017-10-28T13:14:04.272Z,24.6
2017-10-28T13:15:17.586Z,24.71
2017-10-28T13:16:29.795Z,24.96
2017-10-28T13:17:43.057Z,25.28
2017-10-28T13:18:55.809Z,25.15
2017-10-28T13:20:22.065Z,25.23
2017-10-28T13:21:36.218Z,25.76
2017-10-28T13:22:50.535Z,26.15
2017-10-28T13:24:04.583Z,26.52
2017-10-28T13:25:18.846Z,26.66
2017-10-28T13:26:32.870Z,26.17
2017-10-28T13:27:46.894Z,26.07
2017-10-28T13:29:01.012Z,26.28
2017-10-28T13:30:15.140Z,26.32
2017-10-28T13:31:29.396Z,25.97
2017-10-28T13:32:43.530Z,25.58
2017-10-28T13:33:57.545Z,25.62
2017-10-28T13:35:10.990Z,25.33
2017-10-28T13:36:25.042Z,25.25
2017-10-28T13:37:38.520Z,25.46
2017-10-28T13:38:51.998Z,26.06
2017-10-28T13:40:06.508Z,26.45
2017-10-28T13:41:20.761Z,26.52
2017-10-28T13:42:35.347Z,26.69
2017-10-28T13:43:49.753Z,26.05
2017-10-28T13:45:03.384Z,25.67
2017-10-28T13:46:16.994Z,25.28
2017-10-28T13:47:31.166Z,25.1
2017-10-28T13:48:45.177Z,25.35
2017-10-28T13:49:59.264Z,25.42
2017-10-28T13:51:13.117Z,25.3
2017-10-28T13:52:27.188Z,25.25
2017-10-28T13:53:41.650Z,25.36
2017-10-28T13:54:56.035Z,25.52
2017-10-28T13:56:09.922Z,25.6
2017-10-28T13:57:23.619Z,25.73
2017-10-28T13:58:38.398Z,25.69
2017-10-28T13:59:56.380Z,25.76
2017-10-28T14:01:10.184Z,25.61
2017-10-28T14:02:23.625Z,25.18
2017-10-28T14:03:37.060Z,24.93
2017-10-28T14:04:49.985Z,25.32
2017-10-28T14:06:03.483Z,25.55
2017-10-28T14:07:16.438Z,25.88
2017-10-28T14:08:28.942Z,25.9
2017-10-28T14:09:42.761Z,26.1
2017-10-28T14:10:56.296Z,26.21
2017-10-28T14:12:10.211Z,25.91
2017-10-28T14:13:23.455Z,25.97
2017-10-28T14:14:36.469Z,25.58
2017-10-28T14:15:49.299Z,25.83
2017-10-28T14:17:02.207Z,25.9
2017-10-28T14:18:14.999Z,26.28
2017-10-28T14:19:28.354Z,26.26
2017-10-28T14:20:41.784Z,26.48
2017-10-28T14:21:54.009Z,26.52
2017-10-28T14:23:06.789Z,26.26
2017-10-28T14:24:19.070Z,26.17
2017-10-28T14:25:31.924Z,26.39
2017-10-28T14:26:44.809Z,26.2
2017-10-28T14:27:57.680Z,26.26
2017-10-28T14:29:10.967Z,26.55
2017-10-28T14:30:24.314Z,26.62
2017-10-28T14:31:36.580Z,26.48
2017-10-28T14:32:50.443Z,26.63
2017-10-28T14:34:03.047Z,26.85
2017-10-28T14:35:16.411Z,26.7
2017-10-28T14:36:29.735Z,27.02
2017-10-28T14:37:42.513Z,26.72
2017-10-28T14:38:55.302Z,26.12
2017-10-28T14:40:08.058Z,26.15
2017-10-28T14:41:20.812Z,26.43
2017-10-28T14:42:33.624Z,26.73
2017-10-28T14:43:46.992Z,26.8
2017-10-28T14:44:59.794Z,27
2017-10-28T14:46:12.615Z,27.19
2017-10-28T14:47:25.980Z,26.77
2017-10-28T14:48:38.791Z,26.72
2017-10-28T14:49:52.127Z,26.4
2017-10-28T14:51:05.443Z,26.25
2017-10-28T14:52:18.322Z,26.28
2017-10-28T14:53:31.131Z,26.73
2017-10-28T14:54:43.935Z,26.87
2017-10-28T14:55:56.738Z,26.92
2017-10-28T14:57:10.111Z,26.94
2017-10-28T14:58:22.865Z,26.76
2017-10-28T14:59:36.296Z,26.66
2017-10-28T15:00:49.769Z,27.21
2017-10-28T15:02:02.053Z,27.19
2017-10-28T15:03:15.424Z,27.04
2017-10-28T15:04:28.983Z,26.88
2017-10-28T15:05:42.346Z,26.67
2017-10-28T15:06:56.607Z,26.57
2017-10-28T15:08:10.906Z,26.63
2017-10-28T15:09:24.325Z,26.97
2017-10-28T15:10:37.591Z,27.06
2017-10-28T15:11:50.842Z,26.91
2017-10-28T15:13:03.913Z,26.77
2017-10-28T15:14:17.054Z,27.12
2017-10-28T15:15:31.066Z,27.55
2017-10-28T15:16:44.142Z,26.91
2017-10-28T15:17:57.149Z,26.85
2017-10-28T15:19:10.516Z,26.65
2017-10-28T15:20:22.769Z,26.65
2017-10-28T15:21:35.495Z,27.02
2017-10-28T15:22:47.757Z,27.75
2017-10-28T15:24:01.122Z,27.99
2017-10-28T15:25:14.247Z,28.11
2017-10-28T15:26:27.083Z,28.24
2017-10-28T15:27:39.914Z,27.81
2017-10-28T15:28:52.230Z,27.97
2017-10-28T15:30:05.234Z,27.84
2017-10-28T15:31:18.059Z,27.77
2017-10-28T15:32:31.427Z,27.41
2017-10-28T15:33:44.796Z,27.41
2017-10-28T15:34:58.313Z,27.28
2017-10-28T15:36:12.047Z,27.37
2017-10-28T15:37:25.554Z,27.02
2017-10-28T15:38:38.848Z,26.81
2017-10-28T15:39:52.584Z,27.22
2017-10-28T15:41:06.728Z,26.95
2017-10-28T15:42:19.963Z,26.69
2017-10-28T15:43:32.884Z,26.6
2017-10-28T15:44:45.700Z,26.57